sensor_id;sensor_type;location;lat;lon;timestamp;temperature;humidity
59025;DHT22;44806;48.008;13.666;2024-03-23T00:52:44;11.00;99.90
59025;DHT22;44806;48.008;13.666;2024-03-23T00:55:11;11.10;99.90
59025;DHT22;44806;48.008;13.666;2024-03-23T00:57:38;11.20;99.90
59025;DHT22;44806;48.008;13.666;2024-03-23T01:00:05;11.20;99.90
59025;DHT22;44806;48.008;13.666;2024-03-23T01:02:35;11.20;99.90
59025;DHT22;44806;48.008;13.666;2024-03-23T01:05:02;11.20;99.90
59025;DHT22;44806;48.008;13.666;2024-03-23T01:07:29;11.20;99.90
59025;DHT22;44806;48.008;13.666;2024-03-23T01:09:56;11.10;99.90
59025;DHT22;44806;48.008;13.666;2024-03-23T01:12:23;11.10;99.90
59025;DHT22;44806;48.008;13.666;2024-03-23T01:14:49;11.10;99.90
59025;DHT22;44806;48.008;13.666;2024-03-23T01:17:16;11.10;99.90
59025;DHT22;44806;48.008;13.666;2024-03-23T01:19:42;11.10;99.90
59025;DHT22;44806;48.008;13.666;2024-03-23T01:22:09;11.10;99.90
59025;DHT22;44806;48.008;13.666;2024-03-23T01:24:35;11.10;99.90
59025;DHT22;44806;48.008;13.666;2024-03-23T01:27:04;11.10;99.90
59025;DHT22;44806;48.008;13.666;2024-03-23T01:29:30;11.10;99.90
59025;DHT22;44806;48.008;13.666;2024-03-23T01:31:57;11.10;99.90
59025;DHT22;44806;48.008;13.666;2024-03-23T01:34:23;11.10;99.90
59025;DHT22;44806;48.008;13.666;2024-03-23T01:36:50;11.00;99.90
59025;DHT22;44806;48.008;13.666;2024-03-23T01:39:16;11.00;99.90
59025;DHT22;44806;48.008;13.666;2024-03-23T01:41:43;11.00;99.90
59025;DHT22;44806;48.008;13.666;2024-03-23T01:44:11;10.90;99.90
59025;DHT22;44806;48.008;13.666;2024-03-23T01:46:39;10.90;99.90
59025;DHT22;44806;48.008;13.666;2024-03-23T01:49:05;10.90;99.90
59025;DHT22;44806;48.008;13.666;2024-03-23T01:51:32;10.90;99.90
59025;DHT22;44806;48.008;13.666;2024-03-23T01:54:00;10.90;99.90
59025;DHT22;44806;48.008;13.666;2024-03-23T01:56:29;10.90;99.90
59025;DHT22;44806;48.008;13.666;2024-03-23T01:58:55;10.90;99.90
59025;DHT22;44806;48.008;13.666;2024-03-23T02:01:24;10.90;99.90
59025;DHT22;44806;48.008;13.666;2024-03-23T02:03:50;10.90;99.90
59025;DHT22;44806;48.008;13.666;2024-03-23T02:06:18;10.80;99.90
59025;DHT22;44806;48.008;13.666;2024-03-23T02:08:44;10.80;99.90
59025;DHT22;44806;48.008;13.666;2024-03-23T02:11:11;10.70;99.90
59025;DHT22;44806;48.008;13.666;2024-03-23T02:13:37;10.70;99.90
59025;DHT22;44806;48.008;13.666;2024-03-23T02:16:05;10.60;99.90
59025;DHT22;44806;48.008;13.666;2024-03-23T02:18:33;10.50;99.90
59025;DHT22;44806;48.008;13.666;2024-03-23T02:21:00;10.50;99.90
59025;DHT22;44806;48.008;13.666;2024-03-23T02:23:27;10.60;99.90
59025;DHT22;44806;48.008;13.666;2024-03-23T02:25:54;10.60;99.90
59025;DHT22;44806;48.008;13.666;2024-03-23T02:28:20;10.50;99.90
59025;DHT22;44806;48.008;13.666;2024-03-23T02:30:48;10.50;99.90
59025;DHT22;44806;48.008;13.666;2024-03-23T02:33:14;10.40;99.90
59025;DHT22;44806;48.008;13.666;2024-03-23T02:35:41;10.40;99.90
59025;DHT22;44806;48.008;13.666;2024-03-23T02:38:07;10.40;99.90
59025;DHT22;44806;48.008;13.666;2024-03-23T02:40:36;10.30;99.90
59025;DHT22;44806;48.008;13.666;2024-03-23T02:43:02;10.20;99.90
59025;DHT22;44806;48.008;13.666;2024-03-23T02:45:30;10.20;99.90
59025;DHT22;44806;48.008;13.666;2024-03-23T02:47:56;10.10;99.90
59025;DHT22;44806;48.008;13.666;2024-03-23T02:50:23;10.20;99.90
59025;DHT22;44806;48.008;13.666;2024-03-23T02:52:49;10.20;99.90
59025;DHT22;44806;48.008;13.666;2024-03-23T02:55:16;10.10;99.90
59025;DHT22;44806;48.008;13.666;2024-03-23T02:57:43;10.10;99.90
59025;DHT22;44806;48.008;13.666;2024-03-23T03:00:11;10.00;99.90
59025;DHT22;44806;48.008;13.666;2024-03-23T03:02:38;10.00;99.90
59025;DHT22;44806;48.008;13.666;2024-03-23T03:05:06;9.80;99.90
59025;DHT22;44806;48.008;13.666;2024-03-23T03:07:32;9.90;99.90
59025;DHT22;44806;48.008;13.666;2024-03-23T03:09:59;9.90;99.90
59025;DHT22;44806;48.008;13.666;2024-03-23T03:12:25;9.80;99.90
59025;DHT22;44806;48.008;13.666;2024-03-23T03:14:54;9.90;99.90
59025;DHT22;44806;48.008;13.666;2024-03-23T03:17:20;9.90;99.90
59025;DHT22;44806;48.008;13.666;2024-03-23T03:19:47;9.90;99.90
59025;DHT22;44806;48.008;13.666;2024-03-23T03:22:13;9.80;99.90
59025;DHT22;44806;48.008;13.666;2024-03-23T03:24:40;9.80;99.90
59025;DHT22;44806;48.008;13.666;2024-03-23T03:27:06;9.80;99.90
59025;DHT22;44806;48.008;13.666;2024-03-23T03:29:33;9.70;99.90
59025;DHT22;44806;48.008;13.666;2024-03-23T03:34:43;9.70;99.90
59025;DHT22;44806;48.008;13.666;2024-03-23T03:37:10;9.70;99.90
59025;DHT22;44806;48.008;13.666;2024-03-23T03:39:36;9.70;99.90
59025;DHT22;44806;48.008;13.666;2024-03-23T03:42:03;9.70;99.90
59025;DHT22;44806;48.008;13.666;2024-03-23T03:44:32;9.60;99.90
59025;DHT22;44806;48.008;13.666;2024-03-23T03:46:59;9.60;99.90
59025;DHT22;44806;48.008;13.666;2024-03-23T03:49:25;9.60;99.90
59025;DHT22;44806;48.008;13.666;2024-03-23T03:51:54;9.50;99.90
59025;DHT22;44806;48.008;13.666;2024-03-23T03:54:20;9.50;99.90
59025;DHT22;44806;48.008;13.666;2024-03-23T03:56:47;9.40;99.90
59025;DHT22;44806;48.008;13.666;2024-03-23T03:59:13;9.40;99.90
59025;DHT22;44806;48.008;13.666;2024-03-23T04:01:41;9.30;99.90
59025;DHT22;44806;48.008;13.666;2024-03-23T04:04:07;9.30;99.90
59025;DHT22;44806;48.008;13.666;2024-03-23T04:06:34;9.30;99.90
59025;DHT22;44806;48.008;13.666;2024-03-23T04:09:02;9.20;99.90
59025;DHT22;44806;48.008;13.666;2024-03-23T04:11:29;9.20;99.90
59025;DHT22;44806;48.008;13.666;2024-03-23T04:13:55;9.20;99.90
59025;DHT22;44806;48.008;13.666;2024-03-23T04:16:27;9.20;99.90
59025;DHT22;44806;48.008;13.666;2024-03-23T04:18:53;9.20;99.90
59025;DHT22;44806;48.008;13.666;2024-03-23T04:21:21;9.10;99.90
59025;DHT22;44806;48.008;13.666;2024-03-23T04:23:47;9.10;99.90
59025;DHT22;44806;48.008;13.666;2024-03-23T04:26:16;9.10;99.90
59025;DHT22;44806;48.008;13.666;2024-03-23T04:28:42;9.00;99.90
59025;DHT22;44806;48.008;13.666;2024-03-23T04:31:09;9.10;99.90
59025;DHT22;44806;48.008;13.666;2024-03-23T04:33:36;9.10;99.90
59025;DHT22;44806;48.008;13.666;2024-03-23T04:36:03;9.00;99.90
59025;DHT22;44806;48.008;13.666;2024-03-23T04:38:29;9.00;99.90
59025;DHT22;44806;48.008;13.666;2024-03-23T04:40:57;9.00;99.90
59025;DHT22;44806;48.008;13.666;2024-03-23T04:43:26;9.00;99.90
59025;DHT22;44806;48.008;13.666;2024-03-23T04:45:53;8.90;99.90
59025;DHT22;44806;48.008;13.666;2024-03-23T04:48:21;8.90;99.90
59025;DHT22;44806;48.008;13.666;2024-03-23T04:50:49;8.90;99.90
59025;DHT22;44806;48.008;13.666;2024-03-23T04:53:16;8.80;99.90
59025;DHT22;44806;48.008;13.666;2024-03-23T04:55:43;8.80;99.90
59025;DHT22;44806;48.008;13.666;2024-03-23T04:58:10;8.80;99.90
59025;DHT22;44806;48.008;13.666;2024-03-23T05:00:38;8.70;99.90
59025;DHT22;44806;48.008;13.666;2024-03-23T05:03:05;8.70;99.90
59025;DHT22;44806;48.008;13.666;2024-03-23T05:05:32;8.70;99.90
59025;DHT22;44806;48.008;13.666;2024-03-23T05:07:58;8.70;99.90
59025;DHT22;44806;48.008;13.666;2024-03-23T05:10:25;8.70;99.90
59025;DHT22;44806;48.008;13.666;2024-03-23T05:12:51;8.70;99.90
59025;DHT22;44806;48.008;13.666;2024-03-23T05:15:18;8.60;99.90
59025;DHT22;44806;48.008;13.666;2024-03-23T05:17:46;8.60;99.90
59025;DHT22;44806;48.008;13.666;2024-03-23T05:20:13;8.70;99.90
59025;DHT22;44806;48.008;13.666;2024-03-23T05:22:40;8.60;99.90
59025;DHT22;44806;48.008;13.666;2024-03-23T05:25:07;8.60;99.90
59025;DHT22;44806;48.008;13.666;2024-03-23T05:27:35;8.60;99.90
59025;DHT22;44806;48.008;13.666;2024-03-23T05:30:02;8.60;99.90
59025;DHT22;44806;48.008;13.666;2024-03-23T05:32:29;8.50;99.90
59025;DHT22;44806;48.008;13.666;2024-03-23T05:34:57;8.50;99.90
59025;DHT22;44806;48.008;13.666;2024-03-23T05:37:24;8.50;99.90
59025;DHT22;44806;48.008;13.666;2024-03-23T05:39:51;8.50;99.90
59025;DHT22;44806;48.008;13.666;2024-03-23T05:42:17;8.40;99.90
59025;DHT22;44806;48.008;13.666;2024-03-23T05:44:44;8.40;99.90
59025;DHT22;44806;48.008;13.666;2024-03-23T05:47:10;8.40;99.90
59025;DHT22;44806;48.008;13.666;2024-03-23T05:49:38;8.50;99.90
59025;DHT22;44806;48.008;13.666;2024-03-23T05:52:06;8.50;99.90
59025;DHT22;44806;48.008;13.666;2024-03-23T05:54:33;8.50;99.90
59025;DHT22;44806;48.008;13.666;2024-03-23T05:56:59;8.50;99.90
59025;DHT22;44806;48.008;13.666;2024-03-23T05:59:26;8.60;99.90
59025;DHT22;44806;48.008;13.666;2024-03-23T06:01:52;8.60;99.90
59025;DHT22;44806;48.008;13.666;2024-03-23T06:04:19;8.60;99.90
59025;DHT22;44806;48.008;13.666;2024-03-23T06:06:45;8.70;99.90
59025;DHT22;44806;48.008;13.666;2024-03-23T06:09:14;8.70;99.90
59025;DHT22;44806;48.008;13.666;2024-03-23T06:11:40;8.80;99.90
59025;DHT22;44806;48.008;13.666;2024-03-23T06:14:07;8.90;99.90
59025;DHT22;44806;48.008;13.666;2024-03-23T06:16:33;8.90;99.90
59025;DHT22;44806;48.008;13.666;2024-03-23T06:19:00;8.90;99.90
59025;DHT22;44806;48.008;13.666;2024-03-23T06:21:29;9.00;99.90
59025;DHT22;44806;48.008;13.666;2024-03-23T06:23:56;9.10;99.90
59025;DHT22;44806;48.008;13.666;2024-03-23T06:26:24;9.10;99.90
59025;DHT22;44806;48.008;13.666;2024-03-23T06:28:51;9.20;99.90
59025;DHT22;44806;48.008;13.666;2024-03-23T06:31:17;9.30;99.90
59025;DHT22;44806;48.008;13.666;2024-03-23T06:33:44;9.40;99.90
59025;DHT22;44806;48.008;13.666;2024-03-23T06:36:10;9.40;99.90
59025;DHT22;44806;48.008;13.666;2024-03-23T06:38:37;9.50;99.90
59025;DHT22;44806;48.008;13.666;2024-03-23T06:41:04;9.60;99.90
59025;DHT22;44806;48.008;13.666;2024-03-23T06:43:32;9.70;99.90
59025;DHT22;44806;48.008;13.666;2024-03-23T06:45:58;9.80;99.90
59025;DHT22;44806;48.008;13.666;2024-03-23T06:48:25;10.00;99.90
59025;DHT22;44806;48.008;13.666;2024-03-23T06:50:56;10.10;99.90
59025;DHT22;44806;48.008;13.666;2024-03-23T06:53:23;10.20;99.90
59025;DHT22;44806;48.008;13.666;2024-03-23T06:55:51;10.30;99.90
59025;DHT22;44806;48.008;13.666;2024-03-23T06:58:19;10.40;99.90
59025;DHT22;44806;48.008;13.666;2024-03-23T07:00:47;10.60;99.90
59025;DHT22;44806;48.008;13.666;2024-03-23T07:03:14;10.70;99.90
59025;DHT22;44806;48.008;13.666;2024-03-23T07:05:40;10.80;99.90
59025;DHT22;44806;48.008;13.666;2024-03-23T07:08:08;10.90;99.90
59025;DHT22;44806;48.008;13.666;2024-03-23T07:10:34;11.10;99.90
59025;DHT22;44806;48.008;13.666;2024-03-23T07:13:01;11.20;99.90
59025;DHT22;44806;48.008;13.666;2024-03-23T07:15:27;11.30;99.90
59025;DHT22;44806;48.008;13.666;2024-03-23T07:17:55;11.40;99.90
59025;DHT22;44806;48.008;13.666;2024-03-23T07:20:21;11.50;99.90
59025;DHT22;44806;48.008;13.666;2024-03-23T07:22:49;11.60;99.90
59025;DHT22;44806;48.008;13.666;2024-03-23T07:25:15;11.70;99.90
59025;DHT22;44806;48.008;13.666;2024-03-23T07:27:42;11.90;99.90
59025;DHT22;44806;48.008;13.666;2024-03-23T07:30:09;12.00;99.90
59025;DHT22;44806;48.008;13.666;2024-03-23T07:32:36;12.10;99.90
59025;DHT22;44806;48.008;13.666;2024-03-23T07:35:04;12.30;99.90
59025;DHT22;44806;48.008;13.666;2024-03-23T07:37:31;12.40;99.90
59025;DHT22;44806;48.008;13.666;2024-03-23T07:39:57;12.50;99.90
59025;DHT22;44806;48.008;13.666;2024-03-23T07:42:25;12.70;99.90
59025;DHT22;44806;48.008;13.666;2024-03-23T07:44:52;12.90;99.40
59025;DHT22;44806;48.008;13.666;2024-03-23T07:47:20;13.00;98.80
59025;DHT22;44806;48.008;13.666;2024-03-23T07:49:47;13.10;99.00
59025;DHT22;44806;48.008;13.666;2024-03-23T07:52:15;13.20;99.00
59025;DHT22;44806;48.008;13.666;2024-03-23T07:54:41;13.30;99.30
59025;DHT22;44806;48.008;13.666;2024-03-23T07:57:08;13.40;98.80
59025;DHT22;44806;48.008;13.666;2024-03-23T07:59:34;13.60;98.60
59025;DHT22;44806;48.008;13.666;2024-03-23T08:02:01;13.70;98.40
59025;DHT22;44806;48.008;13.666;2024-03-23T08:04:28;13.80;97.90
59025;DHT22;44806;48.008;13.666;2024-03-23T08:06:56;13.90;97.60
59025;DHT22;44806;48.008;13.666;2024-03-23T08:09:23;14.10;97.70
59025;DHT22;44806;48.008;13.666;2024-03-23T08:11:50;14.20;97.10
59025;DHT22;44806;48.008;13.666;2024-03-23T08:14:16;14.30;96.80
59025;DHT22;44806;48.008;13.666;2024-03-23T08:16:43;14.40;95.80
59025;DHT22;44806;48.008;13.666;2024-03-23T08:19:14;14.50;95.90
59025;DHT22;44806;48.008;13.666;2024-03-23T08:21:41;14.70;96.20
59025;DHT22;44806;48.008;13.666;2024-03-23T08:24:07;14.80;96.10
59025;DHT22;44806;48.008;13.666;2024-03-23T08:26:36;14.90;95.30
59025;DHT22;44806;48.008;13.666;2024-03-23T08:29:03;15.00;95.00
59025;DHT22;44806;48.008;13.666;2024-03-23T08:31:30;15.10;94.10
59025;DHT22;44806;48.008;13.666;2024-03-23T08:33:56;15.30;93.80
59025;DHT22;44806;48.008;13.666;2024-03-23T08:36:24;15.40;93.00
59025;DHT22;44806;48.008;13.666;2024-03-23T08:38:50;15.60;94.70
59025;DHT22;44806;48.008;13.666;2024-03-23T08:41:19;15.70;94.30
59025;DHT22;44806;48.008;13.666;2024-03-23T08:43:46;15.90;91.90
59025;DHT22;44806;48.008;13.666;2024-03-23T08:46:15;16.10;90.10
59025;DHT22;44806;48.008;13.666;2024-03-23T08:48:42;16.40;88.40
59025;DHT22;44806;48.008;13.666;2024-03-23T08:51:12;16.60;88.10
59025;DHT22;44806;48.008;13.666;2024-03-23T08:53:38;16.80;84.50
59025;DHT22;44806;48.008;13.666;2024-03-23T08:56:07;16.90;84.60
59025;DHT22;44806;48.008;13.666;2024-03-23T08:58:34;17.00;83.90
59025;DHT22;44806;48.008;13.666;2024-03-23T09:01:06;17.10;83.90
59025;DHT22;44806;48.008;13.666;2024-03-23T09:03:32;17.20;81.50
59025;DHT22;44806;48.008;13.666;2024-03-23T09:05:59;17.40;81.40
59025;DHT22;44806;48.008;13.666;2024-03-23T09:08:25;17.40;81.00
59025;DHT22;44806;48.008;13.666;2024-03-23T09:10:53;17.50;80.20
59025;DHT22;44806;48.008;13.666;2024-03-23T09:13:19;17.60;82.10
59025;DHT22;44806;48.008;13.666;2024-03-23T09:15:47;17.60;77.50
59025;DHT22;44806;48.008;13.666;2024-03-23T09:18:15;17.60;77.10
59025;DHT22;44806;48.008;13.666;2024-03-23T09:20:42;17.80;81.70
59025;DHT22;44806;48.008;13.666;2024-03-23T09:23:09;17.80;75.50
59025;DHT22;44806;48.008;13.666;2024-03-23T09:25:39;17.90;77.90
59025;DHT22;44806;48.008;13.666;2024-03-23T09:28:06;18.10;74.30
59025;DHT22;44806;48.008;13.666;2024-03-23T09:30:34;18.20;73.50
59025;DHT22;44806;48.008;13.666;2024-03-23T09:33:01;18.00;74.00
59025;DHT22;44806;48.008;13.666;2024-03-23T09:35:29;17.80;71.40
59025;DHT22;44806;48.008;13.666;2024-03-23T09:37:55;17.80;74.00
59025;DHT22;44806;48.008;13.666;2024-03-23T09:40:23;17.90;75.00
59025;DHT22;44806;48.008;13.666;2024-03-23T09:42:52;18.10;72.50
59025;DHT22;44806;48.008;13.666;2024-03-23T09:45:22;18.10;71.80
59025;DHT22;44806;48.008;13.666;2024-03-23T09:47:48;18.10;74.70
59025;DHT22;44806;48.008;13.666;2024-03-23T09:50:17;18.20;74.70
59025;DHT22;44806;48.008;13.666;2024-03-23T09:52:46;18.20;72.50
59025;DHT22;44806;48.008;13.666;2024-03-23T09:55:13;18.00;72.60
59025;DHT22;44806;48.008;13.666;2024-03-23T09:57:39;18.00;75.30
59025;DHT22;44806;48.008;13.666;2024-03-23T10:00:07;17.90;73.30
59025;DHT22;44806;48.008;13.666;2024-03-23T10:02:34;17.20;77.70
59025;DHT22;44806;48.008;13.666;2024-03-23T10:05:01;16.70;80.90
59025;DHT22;44806;48.008;13.666;2024-03-23T10:07:27;16.30;83.70
59025;DHT22;44806;48.008;13.666;2024-03-23T10:09:56;16.10;84.20
59025;DHT22;44806;48.008;13.666;2024-03-23T10:12:23;15.90;85.80
59025;DHT22;44806;48.008;13.666;2024-03-23T10:14:52;15.60;86.30
59025;DHT22;44806;48.008;13.666;2024-03-23T10:17:20;15.70;89.30
59025;DHT22;44806;48.008;13.666;2024-03-23T10:19:51;15.30;91.20
59025;DHT22;44806;48.008;13.666;2024-03-23T10:22:18;14.70;91.50
59025;DHT22;44806;48.008;13.666;2024-03-23T10:24:45;13.90;92.90
59025;DHT22;44806;48.008;13.666;2024-03-23T10:27:16;13.60;92.90
59025;DHT22;44806;48.008;13.666;2024-03-23T10:29:43;13.50;92.50
59025;DHT22;44806;48.008;13.666;2024-03-23T10:32:09;13.10;92.50
59025;DHT22;44806;48.008;13.666;2024-03-23T10:34:37;12.80;92.40
59025;DHT22;44806;48.008;13.666;2024-03-23T10:37:04;12.60;92.90
59025;DHT22;44806;48.008;13.666;2024-03-23T10:39:33;12.80;92.80
59025;DHT22;44806;48.008;13.666;2024-03-23T10:42:04;12.70;93.10
59025;DHT22;44806;48.008;13.666;2024-03-23T10:44:32;13.00;93.30
59025;DHT22;44806;48.008;13.666;2024-03-23T10:46:59;13.10;92.90
59025;DHT22;44806;48.008;13.666;2024-03-23T10:49:28;13.00;92.70
59025;DHT22;44806;48.008;13.666;2024-03-23T10:51:56;12.80;92.10
59025;DHT22;44806;48.008;13.666;2024-03-23T10:54:24;12.50;92.60
59025;DHT22;44806;48.008;13.666;2024-03-23T10:56:57;12.30;92.70
59025;DHT22;44806;48.008;13.666;2024-03-23T10:59:26;12.30;92.40
59025;DHT22;44806;48.008;13.666;2024-03-23T11:01:57;12.20;93.20
59025;DHT22;44806;48.008;13.666;2024-03-23T11:04:32;11.90;92.50
59025;DHT22;44806;48.008;13.666;2024-03-23T11:06:58;12.10;93.60
59025;DHT22;44806;48.008;13.666;2024-03-23T11:09:41;11.90;92.90
59025;DHT22;44806;48.008;13.666;2024-03-23T11:12:27;11.70;93.40
59025;DHT22;44806;48.008;13.666;2024-03-23T11:14:58;11.60;94.00
59025;DHT22;44806;48.008;13.666;2024-03-23T11:17:27;11.50;93.80
59025;DHT22;44806;48.008;13.666;2024-03-23T11:19:54;11.80;94.10
59025;DHT22;44806;48.008;13.666;2024-03-23T11:22:41;11.70;93.70
59025;DHT22;44806;48.008;13.666;2024-03-23T11:25:19;11.50;94.30
59025;DHT22;44806;48.008;13.666;2024-03-23T11:27:47;11.60;93.80
59025;DHT22;44806;48.008;13.666;2024-03-23T11:30:16;11.60;93.70
59025;DHT22;44806;48.008;13.666;2024-03-23T11:32:45;11.70;93.90
59025;DHT22;44806;48.008;13.666;2024-03-23T11:35:28;11.70;93.50
59025;DHT22;44806;48.008;13.666;2024-03-23T11:38:08;11.90;94.70
59025;DHT22;44806;48.008;13.666;2024-03-23T11:40:36;11.60;94.10
59025;DHT22;44806;48.008;13.666;2024-03-23T11:43:03;11.70;93.80
59025;DHT22;44806;48.008;13.666;2024-03-23T11:45:35;11.80;94.20
59025;DHT22;44806;48.008;13.666;2024-03-23T11:48:18;11.70;94.40
59025;DHT22;44806;48.008;13.666;2024-03-23T11:50:47;11.80;94.60
59025;DHT22;44806;48.008;13.666;2024-03-23T11:53:15;11.80;94.70
59025;DHT22;44806;48.008;13.666;2024-03-23T11:55:46;11.70;95.20
59025;DHT22;44806;48.008;13.666;2024-03-23T11:58:13;11.70;95.20
59025;DHT22;44806;48.008;13.666;2024-03-23T12:00:41;11.50;95.70
59025;DHT22;44806;48.008;13.666;2024-03-23T12:03:08;11.20;95.90
59025;DHT22;44806;48.008;13.666;2024-03-23T12:05:37;11.20;96.80
59025;DHT22;44806;48.008;13.666;2024-03-23T12:08:31;11.10;97.90
59025;DHT22;44806;48.008;13.666;2024-03-23T12:11:05;11.00;98.70
59025;DHT22;44806;48.008;13.666;2024-03-23T12:13:32;11.00;99.00
59025;DHT22;44806;48.008;13.666;2024-03-23T12:16:09;10.80;99.90
59025;DHT22;44806;48.008;13.666;2024-03-23T12:18:38;10.70;99.90
59025;DHT22;44806;48.008;13.666;2024-03-23T12:21:06;10.50;99.90
59025;DHT22;44806;48.008;13.666;2024-03-23T12:23:33;10.30;99.90
59025;DHT22;44806;48.008;13.666;2024-03-23T12:26:00;10.30;99.90
59025;DHT22;44806;48.008;13.666;2024-03-23T12:28:26;10.00;99.90
59025;DHT22;44806;48.008;13.666;2024-03-23T12:30:53;10.20;99.90
59025;DHT22;44806;48.008;13.666;2024-03-23T12:33:19;9.90;99.90
59025;DHT22;44806;48.008;13.666;2024-03-23T12:35:48;9.80;99.90
59025;DHT22;44806;48.008;13.666;2024-03-23T12:38:14;9.60;99.90
59025;DHT22;44806;48.008;13.666;2024-03-23T12:40:41;9.60;99.90
59025;DHT22;44806;48.008;13.666;2024-03-23T12:43:07;9.50;99.90
59025;DHT22;44806;48.008;13.666;2024-03-23T12:45:34;9.40;99.90
59025;DHT22;44806;48.008;13.666;2024-03-23T12:48:00;9.20;99.90
59025;DHT22;44806;48.008;13.666;2024-03-23T12:50:27;9.10;99.90
59025;DHT22;44806;48.008;13.666;2024-03-23T12:52:55;9.00;99.90
59025;DHT22;44806;48.008;13.666;2024-03-23T12:55:22;8.70;99.90
59025;DHT22;44806;48.008;13.666;2024-03-23T12:57:48;8.60;99.90
59025;DHT22;44806;48.008;13.666;2024-03-23T13:00:15;8.70;99.90
59025;DHT22;44806;48.008;13.666;2024-03-23T13:02:42;8.70;99.90
59025;DHT22;44806;48.008;13.666;2024-03-23T13:05:09;8.70;99.90
59025;DHT22;44806;48.008;13.666;2024-03-23T13:07:35;8.50;99.90
59025;DHT22;44806;48.008;13.666;2024-03-23T13:10:06;8.30;99.90
59025;DHT22;44806;48.008;13.666;2024-03-23T13:12:33;8.10;99.90
59025;DHT22;44806;48.008;13.666;2024-03-23T13:15:00;8.10;99.90
59025;DHT22;44806;48.008;13.666;2024-03-23T13:17:26;8.10;99.90
59025;DHT22;44806;48.008;13.666;2024-03-23T13:19:53;8.00;99.90
59025;DHT22;44806;48.008;13.666;2024-03-23T13:22:19;8.10;99.90
59025;DHT22;44806;48.008;13.666;2024-03-23T13:24:46;8.10;99.90
59025;DHT22;44806;48.008;13.666;2024-03-23T13:27:14;8.10;99.90
59025;DHT22;44806;48.008;13.666;2024-03-23T13:29:41;8.10;99.90
59025;DHT22;44806;48.008;13.666;2024-03-23T13:32:08;8.10;99.90
59025;DHT22;44806;48.008;13.666;2024-03-23T13:34:35;8.00;99.90
59025;DHT22;44806;48.008;13.666;2024-03-23T13:37:01;8.20;99.90
59025;DHT22;44806;48.008;13.666;2024-03-23T13:39:29;8.20;99.90
59025;DHT22;44806;48.008;13.666;2024-03-23T13:41:56;8.30;99.90
59025;DHT22;44806;48.008;13.666;2024-03-23T13:44:24;8.30;99.90
59025;DHT22;44806;48.008;13.666;2024-03-23T13:46:50;8.30;99.90
59025;DHT22;44806;48.008;13.666;2024-03-23T13:49:25;8.40;99.90
59025;DHT22;44806;48.008;13.666;2024-03-23T13:51:52;8.40;99.90
59025;DHT22;44806;48.008;13.666;2024-03-23T13:54:20;8.40;99.90
59025;DHT22;44806;48.008;13.666;2024-03-23T13:56:48;8.40;99.90
59025;DHT22;44806;48.008;13.666;2024-03-23T13:59:15;8.40;99.90
59025;DHT22;44806;48.008;13.666;2024-03-23T14:01:42;8.50;99.90
59025;DHT22;44806;48.008;13.666;2024-03-23T14:04:10;8.40;99.90
59025;DHT22;44806;48.008;13.666;2024-03-23T14:06:36;8.40;99.90
59025;DHT22;44806;48.008;13.666;2024-03-23T14:09:03;8.30;99.90
59025;DHT22;44806;48.008;13.666;2024-03-23T14:11:30;8.30;99.90
59025;DHT22;44806;48.008;13.666;2024-03-23T14:13:57;8.30;99.90
59025;DHT22;44806;48.008;13.666;2024-03-23T14:16:23;8.10;99.90
59025;DHT22;44806;48.008;13.666;2024-03-23T14:18:51;8.20;99.90
59025;DHT22;44806;48.008;13.666;2024-03-23T14:21:17;8.10;99.90
59025;DHT22;44806;48.008;13.666;2024-03-23T14:23:45;8.00;99.90
59025;DHT22;44806;48.008;13.666;2024-03-23T14:26:11;7.90;99.90
59025;DHT22;44806;48.008;13.666;2024-03-23T14:28:38;7.90;99.90
59025;DHT22;44806;48.008;13.666;2024-03-23T14:31:04;7.90;99.90
59025;DHT22;44806;48.008;13.666;2024-03-23T14:33:36;7.80;99.90
59025;DHT22;44806;48.008;13.666;2024-03-23T14:36:05;7.80;99.90
59025;DHT22;44806;48.008;13.666;2024-03-23T14:38:32;7.90;99.90
59025;DHT22;44806;48.008;13.666;2024-03-23T14:40:59;7.80;99.90
59025;DHT22;44806;48.008;13.666;2024-03-23T14:43:27;7.80;99.90
59025;DHT22;44806;48.008;13.666;2024-03-23T14:46:09;7.80;99.90
59025;DHT22;44806;48.008;13.666;2024-03-23T14:48:36;7.90;99.90
59025;DHT22;44806;48.008;13.666;2024-03-23T14:51:04;7.80;99.90
59025;DHT22;44806;48.008;13.666;2024-03-23T14:53:32;7.70;99.90
59025;DHT22;44806;48.008;13.666;2024-03-23T14:55:58;7.80;99.90
59025;DHT22;44806;48.008;13.666;2024-03-23T14:58:26;7.80;99.90
59025;DHT22;44806;48.008;13.666;2024-03-23T15:00:52;7.80;99.90
59025;DHT22;44806;48.008;13.666;2024-03-23T15:03:19;7.70;99.90
59025;DHT22;44806;48.008;13.666;2024-03-23T15:05:52;7.50;99.90
59025;DHT22;44806;48.008;13.666;2024-03-23T15:08:21;7.60;99.90
59025;DHT22;44806;48.008;13.666;2024-03-23T15:10:47;7.70;99.90
59025;DHT22;44806;48.008;13.666;2024-03-23T15:13:14;7.70;99.90
59025;DHT22;44806;48.008;13.666;2024-03-23T15:15:40;7.60;99.90
59025;DHT22;44806;48.008;13.666;2024-03-23T15:18:10;7.60;99.90
59025;DHT22;44806;48.008;13.666;2024-03-23T15:20:35;7.70;99.90
59025;DHT22;44806;48.008;13.666;2024-03-23T15:23:03;7.70;99.90
59025;DHT22;44806;48.008;13.666;2024-03-23T15:25:30;7.70;99.90
59025;DHT22;44806;48.008;13.666;2024-03-23T15:27:57;7.70;99.90
59025;DHT22;44806;48.008;13.666;2024-03-23T15:30:25;7.80;99.90
59025;DHT22;44806;48.008;13.666;2024-03-23T15:32:52;7.90;99.90
59025;DHT22;44806;48.008;13.666;2024-03-23T15:35:19;7.80;99.90
59025;DHT22;44806;48.008;13.666;2024-03-23T15:37:48;7.90;99.90
59025;DHT22;44806;48.008;13.666;2024-03-23T15:40:14;7.80;99.90
59025;DHT22;44806;48.008;13.666;2024-03-23T15:42:43;7.80;99.90
59025;DHT22;44806;48.008;13.666;2024-03-23T15:45:09;7.90;99.90
59025;DHT22;44806;48.008;13.666;2024-03-23T15:47:37;7.90;99.90
59025;DHT22;44806;48.008;13.666;2024-03-23T15:50:03;8.00;99.90
59025;DHT22;44806;48.008;13.666;2024-03-23T15:52:34;8.00;99.90
59025;DHT22;44806;48.008;13.666;2024-03-23T15:55:01;7.80;99.90
59025;DHT22;44806;48.008;13.666;2024-03-23T15:57:31;7.60;99.90
59025;DHT22;44806;48.008;13.666;2024-03-23T15:59:59;7.50;99.90
59025;DHT22;44806;48.008;13.666;2024-03-23T16:02:26;7.50;99.90
59025;DHT22;44806;48.008;13.666;2024-03-23T16:04:53;7.50;99.90
59025;DHT22;44806;48.008;13.666;2024-03-23T16:07:20;7.50;99.90
59025;DHT22;44806;48.008;13.666;2024-03-23T16:09:46;7.30;99.90
59025;DHT22;44806;48.008;13.666;2024-03-23T16:12:13;7.40;99.90
59025;DHT22;44806;48.008;13.666;2024-03-23T16:14:39;7.50;99.90
59025;DHT22;44806;48.008;13.666;2024-03-23T16:17:08;7.60;99.90
59025;DHT22;44806;48.008;13.666;2024-03-23T16:19:34;7.40;99.90